Jacumba, California
Current Conditions -  °F | °C
As of 4:56 AM on Tuesday 21 Oct 2014 (Local Time) from KNJK Reporting Station
Clear Clear  
Wind Chill: 69°   Ceiling: Unl
Heat Index: 69°   Visibility: 10mi
Dew Point: 44°   Wind: 0mph
Humidity: 40%   Direction: NA
Pressure: 29.77"   Gusts: NA
Location:  32.62°N, 116.19°W
Report Text: KNJK 211156Z AUTO 00000KT 10SM CLR 21/07 A2977 RMK AO2 SLP097 T02060067 10261 20200 53001 $
Loading
Personal Weather Stations






























Interactive Weather Map
Tropical Storm Tracking
New forecast layout! Learn more

10-Day Weather Forecast

Advertisements
Track Severe Weather on mobile